createdAt,value
2023-03-29T00:01:00.160Z,33.72
2023-03-29T00:04:04.322Z,33.52
2023-03-29T00:07:07.233Z,33.51
2023-03-29T00:10:11.112Z,33.91
2023-03-29T00:13:13.603Z,33.86
2023-03-29T00:16:15.842Z,34.77
2023-03-29T00:19:18.622Z,34.83
2023-03-29T00:22:21.421Z,34.54
2023-03-29T00:25:23.654Z,35.58
2023-03-29T00:28:25.955Z,35.70
2023-03-29T00:31:29.003Z,35.74
2023-03-29T00:34:31.323Z,36.81
2023-03-29T00:37:33.634Z,36.71
2023-03-29T00:40:42.532Z,37.29
2023-03-29T00:43:52.677Z,37.56
2023-03-29T00:46:55.888Z,38.12
2023-03-29T00:50:03.091Z,38.17
2023-03-29T00:53:15.190Z,38.28
2023-03-29T00:56:21.703Z,38.30
2023-03-29T00:59:25.810Z,37.80
2023-03-29T01:02:34.506Z,38.36
2023-03-29T01:05:40.538Z,38.01
2023-03-29T01:08:52.958Z,38.61
2023-03-29T01:11:57.001Z,38.77
2023-03-29T01:15:04.455Z,38.56
2023-03-29T01:18:06.868Z,39.11
2023-03-29T01:21:32.360Z,39.04
2023-03-29T01:25:16.905Z,38.51
2023-03-29T01:28:22.869Z,38.82
2023-03-29T01:31:31.545Z,39.09
2023-03-29T01:34:54.786Z,38.65
2023-03-29T01:38:03.155Z,38.96
2023-03-29T01:41:05.746Z,38.56
2023-03-29T01:44:17.353Z,38.94
2023-03-29T01:47:22.534Z,38.44
2023-03-29T01:50:37.824Z,38.74
2023-03-29T01:53:52.021Z,39.00
2023-03-29T01:56:57.155Z,38.74
2023-03-29T02:00:00.854Z,39.16
2023-03-29T02:03:07.260Z,39.33
2023-03-29T02:06:13.481Z,39.36
2023-03-29T02:09:16.734Z,39.65
2023-03-29T02:12:19.201Z,40.75
2023-03-29T02:15:21.778Z,40.54
2023-03-29T02:18:24.780Z,40.92
2023-03-29T02:21:31.557Z,41.34
2023-03-29T02:24:36.549Z,41.16
2023-03-29T02:27:39.548Z,41.92
2023-03-29T02:30:41.755Z,42.54
2023-03-29T02:33:53.056Z,42.87
2023-03-29T02:37:01.021Z,43.03
2023-03-29T02:40:12.538Z,43.17
2023-03-29T02:43:15.938Z,43.11
2023-03-29T02:46:19.062Z,43.15
2023-03-29T02:49:21.579Z,43.71
2023-03-29T02:52:33.548Z,43.03
2023-03-29T02:55:36.214Z,42.79
2023-03-29T02:58:38.705Z,42.99
2023-03-29T03:01:43.846Z,43.06
2023-03-29T03:04:46.208Z,42.68
2023-03-29T03:07:48.956Z,42.49
2023-03-29T03:10:51.193Z,42.59
2023-03-29T03:13:54.525Z,42.29
2023-03-29T03:16:57.870Z,43.63
2023-03-29T03:20:00.158Z,44.37
2023-03-29T03:23:03.461Z,43.40
2023-03-29T03:26:06.057Z,43.41
2023-03-29T03:29:09.023Z,43.25
2023-03-29T03:32:41.509Z,43.62
2023-03-29T03:36:11.310Z,43.26
2023-03-29T03:39:13.808Z,43.49
2023-03-29T03:42:17.075Z,43.62
2023-03-29T03:45:21.141Z,44.04
2023-03-29T03:48:47.039Z,44.06
2023-03-29T03:51:56.927Z,44.49
2023-03-29T03:54:59.524Z,44.60
2023-03-29T03:58:24.460Z,44.44
2023-03-29T04:01:27.439Z,45.19
2023-03-29T04:04:49.163Z,45.13
2023-03-29T04:07:54.308Z,44.72
2023-03-29T04:11:12.419Z,44.18
2023-03-29T04:14:17.308Z,44.04
2023-03-29T04:17:38.476Z,43.92
2023-03-29T04:21:04.395Z,44.05
2023-03-29T04:24:08.996Z,43.72
2023-03-29T04:27:13.512Z,42.55
2023-03-29T04:30:15.843Z,42.30
2023-03-29T04:33:53.409Z,41.90
2023-03-29T04:36:56.416Z,41.46
2023-03-29T04:40:04.892Z,41.81
2023-03-29T04:43:18.856Z,42.06
2023-03-29T04:46:30.859Z,42.25
2023-03-29T04:49:58.351Z,42.10
2023-03-29T04:53:12.991Z,42.22
2023-03-29T04:56:16.510Z,42.25
2023-03-29T04:59:41.509Z,42.20
2023-03-29T05:02:59.137Z,41.38
2023-03-29T05:06:07.623Z,41.47
2023-03-29T05:09:11.486Z,40.42
2023-03-29T05:12:26.305Z,40.69
2023-03-29T05:15:30.019Z,39.95
2023-03-29T05:18:32.261Z,39.86
2023-03-29T05:21:35.344Z,39.83
2023-03-29T05:24:42.152Z,39.48
2023-03-29T05:27:53.152Z,39.45
2023-03-29T05:31:04.591Z,38.96
2023-03-29T05:34:09.063Z,39.48
2023-03-29T05:37:16.378Z,39.17
2023-03-29T05:40:27.480Z,38.44
2023-03-29T05:43:54.485Z,38.11
2023-03-29T05:46:59.758Z,37.55
2023-03-29T05:50:02.081Z,37.66
2023-03-29T05:53:04.360Z,37.52
2023-03-29T05:56:08.721Z,37.43
2023-03-29T05:59:11.426Z,37.95
2023-03-29T06:02:16.040Z,37.39
2023-03-29T06:05:23.344Z,36.77
2023-03-29T06:08:35.024Z,36.50
2023-03-29T06:11:58.953Z,36.25
2023-03-29T06:15:08.982Z,35.97
2023-03-29T06:18:17.610Z,35.67
2023-03-29T06:21:19.962Z,36.13
2023-03-29T06:24:22.610Z,35.96
2023-03-29T06:27:31.596Z,35.68
2023-03-29T06:30:34.392Z,36.08
2023-03-29T06:33:38.166Z,35.13
2023-03-29T06:37:03.603Z,35.22
2023-03-29T06:40:07.040Z,35.05
2023-03-29T06:43:19.788Z,33.95
2023-03-29T06:46:30.073Z,32.42
2023-03-29T06:49:35.984Z,31.25
2023-03-29T06:53:01.691Z,29.08
2023-03-29T06:56:09.390Z,28.40
2023-03-29T06:59:18.944Z,28.27
2023-03-29T07:02:47.386Z,30.39
2023-03-29T07:05:52.204Z,31.13
2023-03-29T07:08:59.747Z,31.34
2023-03-29T07:12:23.366Z,31.83
2023-03-29T07:15:27.763Z,31.67
2023-03-29T07:18:45.644Z,32.17
2023-03-29T07:21:57.059Z,31.65
2023-03-29T07:25:22.502Z,31.21
2023-03-29T07:28:25.320Z,30.32
2023-03-29T07:31:33.036Z,29.77
2023-03-29T07:34:55.725Z,28.65
2023-03-29T07:38:05.712Z,26.57
2023-03-29T07:41:08.676Z,25.31
2023-03-29T07:44:21.651Z,23.44
2023-03-29T07:47:24.722Z,23.43
2023-03-29T07:50:27.531Z,25.54
2023-03-29T07:53:33.951Z,26.32
2023-03-29T07:56:39.844Z,27.20
2023-03-29T07:59:54.213Z,27.84
2023-03-29T08:03:03.794Z,27.48
2023-03-29T08:06:07.138Z,27.95
2023-03-29T08:09:09.484Z,27.71
2023-03-29T08:12:12.197Z,28.17
2023-03-29T08:15:15.478Z,27.97
2023-03-29T08:18:18.032Z,27.34
2023-03-29T08:21:20.425Z,26.94
2023-03-29T08:24:24.956Z,26.95
2023-03-29T08:27:32.464Z,26.94
2023-03-29T08:30:35.336Z,26.67
2023-03-29T08:33:39.167Z,26.21
2023-03-29T08:36:59.948Z,25.69
2023-03-29T08:40:22.470Z,24.79
2023-03-29T08:44:21.576Z,22.56
2023-03-29T08:47:41.632Z,22.49
2023-03-29T08:50:52.808Z,22.18
2023-03-29T08:54:17.123Z,21.79
2023-03-29T08:57:45.244Z,20.84
2023-03-29T09:00:54.697Z,20.74
2023-03-29T09:04:07.376Z,19.44
2023-03-29T09:07:24.029Z,18.79
2023-03-29T09:10:41.125Z,19.66
2023-03-29T09:13:57.315Z,19.79
2023-03-29T09:17:01.695Z,19.84
2023-03-29T09:20:27.966Z,19.42
2023-03-29T09:23:47.016Z,20.66
2023-03-29T09:27:27.755Z,19.66
2023-03-29T09:30:41.721Z,18.76
2023-03-29T09:33:52.504Z,19.53
2023-03-29T09:37:09.155Z,20.17
2023-03-29T09:40:16.643Z,19.94
2023-03-29T09:43:41.675Z,20.55
2023-03-29T09:46:57.090Z,21.03
2023-03-29T09:50:34.087Z,21.63
2023-03-29T09:53:39.408Z,22.99
2023-03-29T09:57:15.884Z,23.47
2023-03-29T10:00:19.680Z,23.67
2023-03-29T10:03:27.434Z,23.70
2023-03-29T10:06:49.216Z,22.77
2023-03-29T10:09:52.695Z,22.69
2023-03-29T10:13:04.395Z,22.38
2023-03-29T10:16:09.245Z,23.21
2023-03-29T10:19:15.250Z,22.81
2023-03-29T10:22:32.357Z,23.51
2023-03-29T10:25:42.287Z,23.54
2023-03-29T10:28:45.417Z,23.72
2023-03-29T10:31:48.078Z,24.00
2023-03-29T10:34:51.275Z,24.29
2023-03-29T10:37:56.259Z,25.18
2023-03-29T10:41:17.355Z,24.40
2023-03-29T10:44:27.736Z,24.43
2023-03-29T10:47:34.471Z,25.41
2023-03-29T10:50:38.241Z,24.93
2023-03-29T10:53:41.147Z,24.76
2023-03-29T10:56:47.380Z,25.45
2023-03-29T11:00:11.223Z,25.33
2023-03-29T11:03:21.390Z,26.27
2023-03-29T11:06:33.537Z,26.33
2023-03-29T11:10:15.761Z,27.36
2023-03-29T11:13:23.994Z,27.17
2023-03-29T11:17:18.845Z,27.01
2023-03-29T11:20:27.145Z,26.50
2023-03-29T11:24:13.802Z,27.58
2023-03-29T11:27:37.620Z,27.37
2023-03-29T11:30:58.456Z,28.33
2023-03-29T11:34:43.218Z,27.80
2023-03-29T11:48:21.480Z,26.89
2023-03-29T11:51:27.232Z,28.58
2023-03-29T11:54:49.345Z,27.09
2023-03-29T11:58:20.668Z,27.79
2023-03-29T12:01:31.413Z,27.59
2023-03-29T12:04:38.719Z,27.74
2023-03-29T12:08:05.291Z,27.60
2023-03-29T12:11:17.426Z,26.82
2023-03-29T12:14:26.086Z,27.07
2023-03-29T12:17:34.579Z,27.30
2023-03-29T12:20:39.808Z,27.98
2023-03-29T12:23:45.446Z,27.05
2023-03-29T12:26:47.978Z,27.18
2023-03-29T12:30:02.583Z,28.12
2023-03-29T12:33:32.035Z,28.17
2023-03-29T12:37:22.143Z,27.83
2023-03-29T12:40:45.726Z,27.72
2023-03-29T12:44:23.555Z,28.97
2023-03-29T12:47:43.293Z,28.78
2023-03-29T12:50:53.085Z,28.89
2023-03-29T12:54:21.202Z,29.04
2023-03-29T12:57:39.440Z,29.12
2023-03-29T13:00:44.564Z,29.15
2023-03-29T13:03:52.724Z,28.74
2023-03-29T13:07:05.743Z,29.10
2023-03-29T13:10:09.564Z,29.57
2023-03-29T13:13:19.417Z,28.94
2023-03-29T13:16:29.930Z,29.87
2023-03-29T13:20:12.521Z,29.58
2023-03-29T13:23:43.852Z,29.39
2023-03-29T13:27:18.365Z,29.72
2023-03-29T13:30:34.814Z,29.86
2023-03-29T13:33:52.943Z,29.68
2023-03-29T13:37:00.946Z,29.59
2023-03-29T13:40:32.901Z,28.58
2023-03-29T13:43:36.569Z,29.47
2023-03-29T13:46:41.481Z,29.68
2023-03-29T13:49:51.746Z,28.72
2023-03-29T13:52:58.490Z,28.91
2023-03-29T13:56:01.773Z,29.52
2023-03-29T13:59:14.461Z,28.80
2023-03-29T14:02:26.342Z,29.70
2023-03-29T14:05:40.047Z,29.26
2023-03-29T14:08:43.961Z,28.65
2023-03-29T14:11:47.425Z,29.41
2023-03-29T14:14:58.795Z,29.65
2023-03-29T14:18:02.128Z,29.00
2023-03-29T14:21:04.855Z,29.42
2023-03-29T14:24:12.829Z,31.08
2023-03-29T14:27:16.060Z,30.57
2023-03-29T14:30:28.716Z,31.81
2023-03-29T14:33:38.167Z,30.71
2023-03-29T14:36:41.722Z,31.41
2023-03-29T14:39:44.664Z,31.81
2023-03-29T14:42:48.605Z,31.24
2023-03-29T14:45:51.167Z,30.86
2023-03-29T14:48:54.247Z,30.75
2023-03-29T14:51:56.673Z,31.40
2023-03-29T14:55:00.907Z,31.32
2023-03-29T14:58:03.252Z,31.24
2023-03-29T15:01:19.865Z,31.02
2023-03-29T15:04:22.286Z,30.11
2023-03-29T15:07:27.032Z,30.45
2023-03-29T15:10:32.270Z,30.57
2023-03-29T15:13:34.590Z,31.23
2023-03-29T15:16:42.730Z,31.68
2023-03-29T15:19:45.006Z,30.44
2023-03-29T15:23:04.067Z,31.71
2023-03-29T15:26:32.680Z,32.89
2023-03-29T15:29:37.375Z,32.28
2023-03-29T15:32:39.909Z,32.41
2023-03-29T15:35:43.185Z,32.47
2023-03-29T15:38:49.407Z,32.48
2023-03-29T15:41:52.791Z,32.82
2023-03-29T15:44:56.313Z,33.16
2023-03-29T15:48:02.053Z,32.72
2023-03-29T15:51:06.694Z,32.28
2023-03-29T15:54:09.454Z,32.30
2023-03-29T15:57:16.203Z,31.95
2023-03-29T16:00:19.840Z,31.98
2023-03-29T16:03:22.449Z,32.86
2023-03-29T16:06:25.108Z,32.49
2023-03-29T16:09:27.406Z,33.85
2023-03-29T16:12:29.654Z,33.61
2023-03-29T16:15:33.611Z,33.99
2023-03-29T16:18:36.267Z,33.15
2023-03-29T16:21:38.699Z,33.56
2023-03-29T16:24:41.334Z,33.94
2023-03-29T16:27:44.163Z,33.73
2023-03-29T16:30:46.590Z,34.48
2023-03-29T16:33:49.034Z,34.42
2023-03-29T16:36:53.010Z,34.15
2023-03-29T16:39:56.123Z,34.27
2023-03-29T16:42:58.321Z,34.17
2023-03-29T16:46:03.371Z,33.54
2023-03-29T16:49:07.965Z,33.40
2023-03-29T16:52:10.333Z,34.06
2023-03-29T16:55:13.628Z,34.42
2023-03-29T16:58:16.204Z,34.50
2023-03-29T17:01:19.270Z,34.84
2023-03-29T17:04:21.451Z,34.88
2023-03-29T17:07:23.526Z,36.27
2023-03-29T17:10:25.700Z,36.34
2023-03-29T17:13:28.067Z,37.78
2023-03-29T17:16:30.491Z,38.27
2023-03-29T17:19:32.836Z,38.30
2023-03-29T17:22:35.873Z,38.59
2023-03-29T17:25:38.127Z,39.21
2023-03-29T17:28:40.430Z,39.92
2023-03-29T17:31:47.715Z,39.29
2023-03-29T17:34:50.569Z,39.46
2023-03-29T17:37:52.825Z,39.83
2023-03-29T17:40:55.604Z,40.45
2023-03-29T17:43:57.920Z,40.17
2023-03-29T17:47:00.969Z,40.57
2023-03-29T17:50:04.834Z,40.40
2023-03-29T17:53:07.272Z,40.56
2023-03-29T17:56:09.509Z,40.72
2023-03-29T17:59:11.775Z,41.58
2023-03-29T18:02:19.648Z,40.86
2023-03-29T18:05:21.933Z,41.18
2023-03-29T18:08:24.213Z,41.02
2023-03-29T18:11:27.300Z,40.83
2023-03-29T18:14:29.443Z,40.71
2023-03-29T18:17:31.759Z,41.04
2023-03-29T18:20:34.137Z,41.24
2023-03-29T18:23:39.952Z,41.59
2023-03-29T18:26:42.321Z,41.05
2023-03-29T18:29:46.048Z,41.56
2023-03-29T18:32:48.439Z,41.13
2023-03-29T18:35:51.447Z,41.50
2023-03-29T18:38:55.783Z,41.87
2023-03-29T18:41:58.043Z,40.97
2023-03-29T18:45:00.298Z,40.79
2023-03-29T18:48:05.355Z,41.62
2023-03-29T18:51:09.402Z,41.87
2023-03-29T18:54:11.916Z,42.42
2023-03-29T18:57:14.253Z,40.96
2023-03-29T19:00:17.583Z,42.23
2023-03-29T19:03:19.921Z,41.71
2023-03-29T19:06:22.261Z,42.78
2023-03-29T19:09:24.590Z,42.58
2023-03-29T19:12:26.873Z,42.61
2023-03-29T19:15:29.140Z,43.08
2023-03-29T19:18:31.528Z,42.31
2023-03-29T19:21:33.904Z,43.44
2023-03-29T19:24:36.271Z,42.59
2023-03-29T19:27:38.516Z,43.53
2023-03-29T19:30:41.312Z,43.43
2023-03-29T19:33:43.598Z,43.21
2023-03-29T19:36:46.033Z,43.69
2023-03-29T19:39:48.255Z,42.99
2023-03-29T19:42:50.568Z,43.05
2023-03-29T19:45:52.818Z,43.52
2023-03-29T19:48:56.192Z,43.32
2023-03-29T19:51:59.122Z,43.45
2023-03-29T19:55:02.112Z,43.83
2023-03-29T19:58:05.537Z,43.17
2023-03-29T20:01:07.825Z,43.40
2023-03-29T20:04:10.170Z,43.62
2023-03-29T20:07:13.005Z,44.05
2023-03-29T20:10:15.510Z,44.78
2023-03-29T20:13:27.686Z,44.02
2023-03-29T20:16:42.754Z,44.27
2023-03-29T20:19:45.012Z,43.97
2023-03-29T20:22:47.875Z,44.76
2023-03-29T20:25:50.144Z,44.47
2023-03-29T20:28:52.415Z,44.70
2023-03-29T20:31:54.717Z,45.46
2023-03-29T20:34:57.018Z,45.49
2023-03-29T20:37:59.311Z,44.93
2023-03-29T20:41:02.913Z,45.39
2023-03-29T20:44:05.689Z,44.92
2023-03-29T20:47:08.151Z,45.47
2023-03-29T20:50:10.780Z,45.32
2023-03-29T20:53:13.454Z,45.44
2023-03-29T20:56:15.685Z,45.94
2023-03-29T20:59:18.067Z,46.11
2023-03-29T21:02:22.976Z,45.51
2023-03-29T21:05:30.164Z,46.44
2023-03-29T21:08:32.454Z,45.92
2023-03-29T21:11:34.722Z,46.12
2023-03-29T21:14:37.907Z,45.69
2023-03-29T21:17:40.935Z,46.46
2023-03-29T21:20:44.120Z,45.82
2023-03-29T21:23:46.416Z,45.48
2023-03-29T21:26:48.748Z,45.93
2023-03-29T21:29:51.274Z,45.14
2023-03-29T21:32:53.582Z,45.00
2023-03-29T21:35:55.852Z,45.26
2023-03-29T21:38:58.118Z,46.07
2023-03-29T21:42:00.480Z,45.83
2023-03-29T21:45:03.084Z,45.55
2023-03-29T21:48:05.722Z,45.71
2023-03-29T21:51:08.622Z,45.53
2023-03-29T21:54:11.419Z,45.94
2023-03-29T21:57:13.703Z,46.42
2023-03-29T22:00:17.718Z,46.40
2023-03-29T22:03:19.991Z,45.90
2023-03-29T22:06:22.360Z,46.59
2023-03-29T22:09:26.635Z,46.90
2023-03-29T22:12:28.887Z,46.49
2023-03-29T22:15:35.509Z,46.86
2023-03-29T22:18:44.302Z,45.83
2023-03-29T22:21:48.433Z,45.75
2023-03-29T22:24:55.123Z,46.83
2023-03-29T22:27:57.388Z,46.68
2023-03-29T22:31:07.983Z,46.27
2023-03-29T22:34:10.515Z,47.08
2023-03-29T22:37:12.803Z,47.17
2023-03-29T22:40:15.552Z,46.99
2023-03-29T22:43:17.854Z,47.60
2023-03-29T22:46:20.990Z,47.93
2023-03-29T22:49:23.174Z,48.14
2023-03-29T22:52:26.219Z,47.79
2023-03-29T22:55:28.349Z,48.50
2023-03-29T22:58:30.653Z,48.72
2023-03-29T23:01:32.998Z,48.67
2023-03-29T23:04:36.652Z,48.70
2023-03-29T23:07:38.997Z,49.06
2023-03-29T23:10:41.328Z,48.81
2023-03-29T23:13:43.631Z,48.97
2023-03-29T23:16:46.125Z,48.90
2023-03-29T23:19:48.445Z,49.27
2023-03-29T23:22:50.728Z,49.64
2023-03-29T23:25:53.774Z,50.29
2023-03-29T23:28:57.448Z,49.92
2023-03-29T23:31:59.737Z,50.07
2023-03-29T23:35:04.494Z,50.06
2023-03-29T23:38:08.514Z,50.01
2023-03-29T23:41:12.939Z,49.82
2023-03-29T23:44:15.465Z,49.78
2023-03-29T23:47:17.682Z,50.67
2023-03-29T23:50:20.010Z,50.68
2023-03-29T23:53:22.249Z,50.95
2023-03-29T23:56:24.938Z,50.20
2023-03-29T23:59:29.980Z,50.68
